sensor_id;sensor_type;location;lat;lon;timestamp;pressure;altitude;pressure_sealevel;temperature;humidity
67740;BME280;54536;50.090;14.420;2023-05-24T00:00:13;99589.72;;;17.19;48.78
67740;BME280;54536;50.090;14.420;2023-05-24T00:03:00;99583.44;;;17.12;48.78
67740;BME280;54536;50.090;14.420;2023-05-24T00:05:29;99582.50;;;17.04;48.93
67740;BME280;54536;50.090;14.420;2023-05-24T00:07:56;99588.56;;;17.13;48.04
67740;BME280;54536;50.090;14.420;2023-05-24T00:10:22;99583.09;;;17.15;48.51
67740;BME280;54536;50.090;14.420;2023-05-24T00:12:48;99579.00;;;17.04;48.83
67740;BME280;54536;50.090;14.420;2023-05-24T00:15:14;99584.66;;;17.01;48.38
67740;BME280;54536;50.090;14.420;2023-05-24T00:17:40;99582.50;;;16.96;48.71
67740;BME280;54536;50.090;14.420;2023-05-24T00:20:09;99584.88;;;16.91;48.70
67740;BME280;54536;50.090;14.420;2023-05-24T00:22:40;99583.06;;;16.83;49.26
67740;BME280;54536;50.090;14.420;2023-05-24T00:25:07;99588.31;;;17.00;48.32
67740;BME280;54536;50.090;14.420;2023-05-24T00:27:33;99587.97;;;17.03;48.89
67740;BME280;54536;50.090;14.420;2023-05-24T00:30:03;99582.50;;;16.96;49.00
67740;BME280;54536;50.090;14.420;2023-05-24T00:32:29;99587.47;;;17.07;49.57
67740;BME280;54536;50.090;14.420;2023-05-24T00:34:55;99584.50;;;17.02;48.79
67740;BME280;54536;50.090;14.420;2023-05-24T00:37:21;99588.97;;;17.02;48.55
67740;BME280;54536;50.090;14.420;2023-05-24T00:39:48;99585.38;;;16.95;48.93
67740;BME280;54536;50.090;14.420;2023-05-24T00:42:14;99587.06;;;16.88;48.93
67740;BME280;54536;50.090;14.420;2023-05-24T00:44:41;99587.19;;;16.94;48.99
67740;BME280;54536;50.090;14.420;2023-05-24T00:47:07;99586.72;;;16.91;48.91
67740;BME280;54536;50.090;14.420;2023-05-24T00:49:33;99589.03;;;16.85;48.94
67740;BME280;54536;50.090;14.420;2023-05-24T00:52:00;99590.72;;;16.78;49.21
67740;BME280;54536;50.090;14.420;2023-05-24T00:54:27;99598.84;;;16.77;48.63
67740;BME280;54536;50.090;14.420;2023-05-24T00:56:55;99593.72;;;16.75;49.44
67740;BME280;54536;50.090;14.420;2023-05-24T00:59:25;99591.91;;;16.76;49.31
67740;BME280;54536;50.090;14.420;2023-05-24T01:01:51;99601.00;;;16.73;49.71
67740;BME280;54536;50.090;14.420;2023-05-24T01:04:20;99599.88;;;16.68;49.47
67740;BME280;54536;50.090;14.420;2023-05-24T01:07:05;99600.16;;;16.73;50.34
67740;BME280;54536;50.090;14.420;2023-05-24T01:10:04;99592.38;;;16.79;49.74
67740;BME280;54536;50.090;14.420;2023-05-24T01:13:04;99597.22;;;16.76;49.63
67740;BME280;54536;50.090;14.420;2023-05-24T01:15:59;99593.84;;;16.74;50.06
67740;BME280;54536;50.090;14.420;2023-05-24T01:18:31;99599.03;;;16.75;50.53
67740;BME280;54536;50.090;14.420;2023-05-24T01:26:31;99603.50;;;16.67;50.90
67740;BME280;54536;50.090;14.420;2023-05-24T01:29:00;99605.69;;;16.63;51.23
67740;BME280;54536;50.090;14.420;2023-05-24T01:31:27;99617.78;;;16.66;49.96
67740;BME280;54536;50.090;14.420;2023-05-24T01:33:53;99616.44;;;16.70;49.61
67740;BME280;54536;50.090;14.420;2023-05-24T01:36:20;99614.31;;;16.65;49.45
67740;BME280;54536;50.090;14.420;2023-05-24T01:38:48;99616.81;;;16.50;50.64
67740;BME280;54536;50.090;14.420;2023-05-24T01:41:41;99615.19;;;16.49;50.38
67740;BME280;54536;50.090;14.420;2023-05-24T01:44:19;99609.88;;;16.41;50.29
67740;BME280;54536;50.090;14.420;2023-05-24T01:47:07;99609.03;;;16.49;50.83
67740;BME280;54536;50.090;14.420;2023-05-24T01:49:41;99607.06;;;16.43;50.38
67740;BME280;54536;50.090;14.420;2023-05-24T01:52:15;99611.69;;;16.41;50.56
67740;BME280;54536;50.090;14.420;2023-05-24T01:54:47;99619.50;;;16.42;50.42
67740;BME280;54536;50.090;14.420;2023-05-24T01:57:19;99622.47;;;16.47;49.63
67740;BME280;54536;50.090;14.420;2023-05-24T01:59:46;99620.16;;;16.52;49.63
67740;BME280;54536;50.090;14.420;2023-05-24T02:02:14;99622.81;;;16.44;49.97
67740;BME280;54536;50.090;14.420;2023-05-24T02:04:41;99618.69;;;16.42;49.76
67740;BME280;54536;50.090;14.420;2023-05-24T02:07:07;99614.53;;;16.39;49.93
67740;BME280;54536;50.090;14.420;2023-05-24T02:09:33;99620.97;;;16.45;49.76
67740;BME280;54536;50.090;14.420;2023-05-24T02:11:59;99616.19;;;16.40;50.28
67740;BME280;54536;50.090;14.420;2023-05-24T02:14:26;99616.50;;;16.45;49.46
67740;BME280;54536;50.090;14.420;2023-05-24T02:16:53;99617.81;;;16.41;49.47
67740;BME280;54536;50.090;14.420;2023-05-24T02:19:23;99624.31;;;16.38;49.49
67740;BME280;54536;50.090;14.420;2023-05-24T02:21:50;99616.69;;;16.35;50.70
67740;BME280;54536;50.090;14.420;2023-05-24T02:24:17;99622.50;;;16.23;49.36
67740;BME280;54536;50.090;14.420;2023-05-24T02:26:43;99613.72;;;16.06;49.68
67740;BME280;54536;50.090;14.420;2023-05-24T02:29:09;99622.50;;;16.23;49.36
67740;BME280;54536;50.090;14.420;2023-05-24T02:31:36;99616.88;;;16.26;49.47
67740;BME280;54536;50.090;14.420;2023-05-24T02:34:02;99615.72;;;16.20;49.85
67740;BME280;54536;50.090;14.420;2023-05-24T02:36:28;99616.38;;;16.14;50.24
67740;BME280;54536;50.090;14.420;2023-05-24T02:38:54;99613.91;;;16.12;49.71
67740;BME280;54536;50.090;14.420;2023-05-24T02:41:21;99618.03;;;15.99;50.16
67740;BME280;54536;50.090;14.420;2023-05-24T02:43:47;99622.69;;;16.13;50.46
67740;BME280;54536;50.090;14.420;2023-05-24T02:46:14;99625.47;;;16.11;50.06
67740;BME280;54536;50.090;14.420;2023-05-24T02:48:40;99623.50;;;16.05;50.00
67740;BME280;54536;50.090;14.420;2023-05-24T02:51:06;99618.00;;;16.15;49.55
67740;BME280;54536;50.090;14.420;2023-05-24T02:53:32;99619.03;;;16.22;49.41
67740;BME280;54536;50.090;14.420;2023-05-24T02:55:59;99628.97;;;16.12;49.39
67740;BME280;54536;50.090;14.420;2023-05-24T02:58:25;99627.16;;;16.12;49.66
67740;BME280;54536;50.090;14.420;2023-05-24T03:00:55;99624.81;;;16.18;49.85
67740;BME280;54536;50.090;14.420;2023-05-24T03:03:21;99629.66;;;16.06;49.42
67740;BME280;54536;50.090;14.420;2023-05-24T03:05:48;99628.81;;;16.13;49.36
67740;BME280;54536;50.090;14.420;2023-05-24T03:08:13;99626.31;;;16.12;50.17
67740;BME280;54536;50.090;14.420;2023-05-24T03:10:40;99628.47;;;16.00;50.17
67740;BME280;54536;50.090;14.420;2023-05-24T03:13:06;99629.81;;;16.04;49.43
67740;BME280;54536;50.090;14.420;2023-05-24T03:15:32;99626.66;;;16.01;50.04
67740;BME280;54536;50.090;14.420;2023-05-24T03:17:58;99632.78;;;16.01;49.75
67740;BME280;54536;50.090;14.420;2023-05-24T03:20:25;99631.13;;;16.08;50.19
67740;BME280;54536;50.090;14.420;2023-05-24T03:22:51;99635.13;;;15.96;49.19
67740;BME280;54536;50.090;14.420;2023-05-24T03:25:17;99640.59;;;16.03;49.23
67740;BME280;54536;50.090;14.420;2023-05-24T03:27:43;99644.03;;;15.95;48.79
67740;BME280;54536;50.090;14.420;2023-05-24T03:30:11;99643.69;;;15.82;47.94
67740;BME280;54536;50.090;14.420;2023-05-24T03:32:37;99645.38;;;15.83;48.10
67740;BME280;54536;50.090;14.420;2023-05-24T03:35:04;99653.16;;;15.84;48.05
67740;BME280;54536;50.090;14.420;2023-05-24T03:37:30;99650.00;;;15.81;48.07
67740;BME280;54536;50.090;14.420;2023-05-24T03:39:56;99659.94;;;15.79;47.75
67740;BME280;54536;50.090;14.420;2023-05-24T03:42:22;99654.81;;;15.77;46.91
67740;BME280;54536;50.090;14.420;2023-05-24T03:44:49;99661.13;;;15.84;47.38
67740;BME280;54536;50.090;14.420;2023-05-24T03:47:15;99657.13;;;15.88;47.38
67740;BME280;54536;50.090;14.420;2023-05-24T03:49:41;99660.25;;;15.76;47.24
67740;BME280;54536;50.090;14.420;2023-05-24T03:52:08;99663.09;;;15.82;47.21
67740;BME280;54536;50.090;14.420;2023-05-24T03:54:34;99674.34;;;15.68;47.23
67740;BME280;54536;50.090;14.420;2023-05-24T03:57:00;99674.69;;;15.73;46.99
67740;BME280;54536;50.090;14.420;2023-05-24T03:59:27;99674.63;;;15.57;47.80
67740;BME280;54536;50.090;14.420;2023-05-24T04:01:55;99669.53;;;15.72;48.19
67740;BME280;54536;50.090;14.420;2023-05-24T04:04:22;99679.44;;;15.61;47.91
67740;BME280;54536;50.090;14.420;2023-05-24T04:06:48;99679.25;;;15.63;47.13
67740;BME280;54536;50.090;14.420;2023-05-24T04:09:14;99686.78;;;15.67;47.54
67740;BME280;54536;50.090;14.420;2023-05-24T04:11:41;99688.59;;;15.67;46.67
67740;BME280;54536;50.090;14.420;2023-05-24T04:14:08;99693.38;;;15.63;46.99
67740;BME280;54536;50.090;14.420;2023-05-24T04:16:34;99695.56;;;15.68;46.54
67740;BME280;54536;50.090;14.420;2023-05-24T04:19:00;99685.44;;;15.72;47.49
67740;BME280;54536;50.090;14.420;2023-05-24T04:21:29;99688.53;;;15.51;47.81
67740;BME280;54536;50.090;14.420;2023-05-24T04:23:56;99693.94;;;15.41;47.96
67740;BME280;54536;50.090;14.420;2023-05-24T04:26:25;99696.47;;;15.51;47.02
67740;BME280;54536;50.090;14.420;2023-05-24T04:28:51;99693.66;;;15.52;47.54
67740;BME280;54536;50.090;14.420;2023-05-24T04:31:17;99687.50;;;15.43;47.69
67740;BME280;54536;50.090;14.420;2023-05-24T04:33:45;99692.69;;;15.61;46.93
67740;BME280;54536;50.090;14.420;2023-05-24T04:36:13;99693.50;;;15.62;48.22
67740;BME280;54536;50.090;14.420;2023-05-24T04:38:39;99693.31;;;15.55;47.67
67740;BME280;54536;50.090;14.420;2023-05-24T04:41:05;99692.50;;;15.63;47.60
67740;BME280;54536;50.090;14.420;2023-05-24T04:43:32;99702.34;;;15.71;47.47
67740;BME280;54536;50.090;14.420;2023-05-24T04:46:01;99703.38;;;15.78;47.55
67740;BME280;54536;50.090;14.420;2023-05-24T04:48:28;99701.16;;;15.65;47.29
67740;BME280;54536;50.090;14.420;2023-05-24T04:50:55;99701.13;;;15.57;47.23
67740;BME280;54536;50.090;14.420;2023-05-24T04:53:22;99707.91;;;15.59;47.71
67740;BME280;54536;50.090;14.420;2023-05-24T04:55:50;99702.78;;;15.58;47.08
67740;BME280;54536;50.090;14.420;2023-05-24T04:58:16;99698.81;;;15.54;47.59
67740;BME280;54536;50.090;14.420;2023-05-24T05:00:43;99704.94;;;15.54;46.98
67740;BME280;54536;50.090;14.420;2023-05-24T05:03:10;99701.47;;;15.62;48.07
67740;BME280;54536;50.090;14.420;2023-05-24T05:05:36;99701.84;;;15.67;47.40
67740;BME280;54536;50.090;14.420;2023-05-24T05:08:02;99704.94;;;15.62;46.89
67740;BME280;54536;50.090;14.420;2023-05-24T05:10:29;99703.47;;;15.60;47.74
67740;BME280;54536;50.090;14.420;2023-05-24T05:12:55;99701.41;;;15.45;47.47
67740;BME280;54536;50.090;14.420;2023-05-24T05:15:22;99704.09;;;15.54;47.58
67740;BME280;54536;50.090;14.420;2023-05-24T05:17:49;99710.41;;;15.61;46.83
67740;BME280;54536;50.090;14.420;2023-05-24T05:20:15;99712.75;;;15.64;47.07
67740;BME280;54536;50.090;14.420;2023-05-24T05:22:45;99714.97;;;15.77;47.10
67740;BME280;54536;50.090;14.420;2023-05-24T05:25:12;99715.44;;;15.72;46.68
67740;BME280;54536;50.090;14.420;2023-05-24T05:27:38;99712.97;;;15.71;46.75
67740;BME280;54536;50.090;14.420;2023-05-24T05:30:05;99718.78;;;15.74;46.81
67740;BME280;54536;50.090;14.420;2023-05-24T05:32:31;99719.44;;;15.76;46.79
67740;BME280;54536;50.090;14.420;2023-05-24T05:34:57;99713.16;;;15.77;46.46
67740;BME280;54536;50.090;14.420;2023-05-24T05:37:24;99717.88;;;15.65;46.32
67740;BME280;54536;50.090;14.420;2023-05-24T05:39:52;99723.75;;;15.77;46.29
67740;BME280;54536;50.090;14.420;2023-05-24T05:42:19;99723.88;;;15.67;46.32
67740;BME280;54536;50.090;14.420;2023-05-24T05:44:45;99725.00;;;15.65;46.41
67740;BME280;54536;50.090;14.420;2023-05-24T05:47:11;99731.72;;;15.77;46.28
67740;BME280;54536;50.090;14.420;2023-05-24T05:49:37;99732.78;;;15.58;45.52
67740;BME280;54536;50.090;14.420;2023-05-24T05:52:07;99736.59;;;15.64;46.21
67740;BME280;54536;50.090;14.420;2023-05-24T05:54:33;99733.78;;;15.65;45.75
67740;BME280;54536;50.090;14.420;2023-05-24T05:57:00;99736.94;;;15.61;45.88
67740;BME280;54536;50.090;14.420;2023-05-24T05:59:26;99735.69;;;15.73;45.72
67740;BME280;54536;50.090;14.420;2023-05-24T06:01:52;99747.44;;;15.79;45.30
67740;BME280;54536;50.090;14.420;2023-05-24T06:04:18;99743.13;;;15.78;46.08
67740;BME280;54536;50.090;14.420;2023-05-24T06:06:45;99748.44;;;15.70;45.97
67740;BME280;54536;50.090;14.420;2023-05-24T06:09:17;99748.44;;;15.78;45.60
67740;BME280;54536;50.090;14.420;2023-05-24T06:11:43;99740.31;;;15.71;45.19
67740;BME280;54536;50.090;14.420;2023-05-24T06:14:10;99742.44;;;15.67;45.88
67740;BME280;54536;50.090;14.420;2023-05-24T06:16:38;99748.44;;;15.70;45.51
67740;BME280;54536;50.090;14.420;2023-05-24T06:19:06;99756.22;;;15.71;46.37
67740;BME280;54536;50.090;14.420;2023-05-24T06:21:34;99761.78;;;15.60;45.53
67740;BME280;54536;50.090;14.420;2023-05-24T06:24:02;99769.06;;;15.58;45.47
67740;BME280;54536;50.090;14.420;2023-05-24T06:26:29;99773.22;;;15.60;45.15
67740;BME280;54536;50.090;14.420;2023-05-24T06:28:55;99769.06;;;15.58;45.42
67740;BME280;54536;50.090;14.420;2023-05-24T06:31:21;99772.72;;;15.65;45.45
67740;BME280;54536;50.090;14.420;2023-05-24T06:33:47;99772.03;;;15.63;45.68
67740;BME280;54536;50.090;14.420;2023-05-24T06:36:14;99770.06;;;15.65;45.69
67740;BME280;54536;50.090;14.420;2023-05-24T06:38:40;99771.91;;;15.64;44.92
67740;BME280;54536;50.090;14.420;2023-05-24T06:41:06;99761.78;;;15.60;45.55
67740;BME280;54536;50.090;14.420;2023-05-24T06:43:33;99778.50;;;15.60;46.04
67740;BME280;54536;50.090;14.420;2023-05-24T06:45:59;99767.53;;;15.55;45.57
67740;BME280;54536;50.090;14.420;2023-05-24T06:48:26;99779.59;;;15.50;45.17
67740;BME280;54536;50.090;14.420;2023-05-24T06:50:52;99781.78;;;15.54;45.41
67740;BME280;54536;50.090;14.420;2023-05-24T06:53:18;99782.25;;;15.50;45.72
67740;BME280;54536;50.090;14.420;2023-05-24T06:55:45;99785.09;;;15.56;46.02
67740;BME280;54536;50.090;14.420;2023-05-24T06:58:11;99782.25;;;15.50;45.85
67740;BME280;54536;50.090;14.420;2023-05-24T07:00:41;99782.94;;;15.52;46.40
67740;BME280;54536;50.090;14.420;2023-05-24T07:03:08;99785.56;;;15.70;45.41
67740;BME280;54536;50.090;14.420;2023-05-24T07:05:35;99790.84;;;15.70;45.31
67740;BME280;54536;50.090;14.420;2023-05-24T07:08:02;99784.88;;;15.67;45.29
67740;BME280;54536;50.090;14.420;2023-05-24T07:10:28;99788.19;;;15.70;45.08
67740;BME280;54536;50.090;14.420;2023-05-24T07:12:54;99797.31;;;15.75;44.72
67740;BME280;54536;50.090;14.420;2023-05-24T07:15:21;99796.97;;;15.70;44.70
67740;BME280;54536;50.090;14.420;2023-05-24T07:17:46;99799.97;;;15.75;44.34
67740;BME280;54536;50.090;14.420;2023-05-24T07:20:13;99793.41;;;15.61;44.00
67740;BME280;54536;50.090;14.420;2023-05-24T07:22:39;99795.75;;;15.64;44.09
67740;BME280;54536;50.090;14.420;2023-05-24T07:25:06;99800.78;;;15.67;43.50
67740;BME280;54536;50.090;14.420;2023-05-24T07:27:32;99799.13;;;15.66;43.30
67740;BME280;54536;50.090;14.420;2023-05-24T07:29:59;99809.00;;;15.64;43.89
67740;BME280;54536;50.090;14.420;2023-05-24T07:32:24;99807.28;;;15.73;43.16
67740;BME280;54536;50.090;14.420;2023-05-24T07:34:51;99805.59;;;15.72;43.91
67740;BME280;54536;50.090;14.420;2023-05-24T07:37:17;99806.91;;;15.68;43.67
67740;BME280;54536;50.090;14.420;2023-05-24T07:39:44;99813.72;;;15.79;44.45
67740;BME280;54536;50.090;14.420;2023-05-24T07:42:10;99806.81;;;15.86;43.35
67740;BME280;54536;50.090;14.420;2023-05-24T07:44:39;99804.69;;;15.98;43.97
67740;BME280;54536;50.090;14.420;2023-05-24T07:47:05;99800.41;;;16.05;43.58
67740;BME280;54536;50.090;14.420;2023-05-24T07:49:31;99797.91;;;16.03;42.96
67740;BME280;54536;50.090;14.420;2023-05-24T07:51:57;99804.69;;;15.98;42.65
67740;BME280;54536;50.090;14.420;2023-05-24T07:54:25;99799.56;;;16.04;42.55
67740;BME280;54536;50.090;14.420;2023-05-24T07:56:51;99801.09;;;16.15;42.24
67740;BME280;54536;50.090;14.420;2023-05-24T07:59:17;99797.28;;;16.09;43.49
67740;BME280;54536;50.090;14.420;2023-05-24T08:01:43;99798.28;;;16.17;42.77
67740;BME280;54536;50.090;14.420;2023-05-24T08:04:09;99790.31;;;16.25;42.45
67740;BME280;54536;50.090;14.420;2023-05-24T08:06:36;99793.66;;;16.19;42.64
67740;BME280;54536;50.090;14.420;2023-05-24T08:09:02;99799.94;;;16.18;43.45
67740;BME280;54536;50.090;14.420;2023-05-24T08:11:29;99790.66;;;16.22;42.95
67740;BME280;54536;50.090;14.420;2023-05-24T08:13:55;99791.84;;;16.19;42.70
67740;BME280;54536;50.090;14.420;2023-05-24T08:16:21;99789.34;;;16.34;42.02
67740;BME280;54536;50.090;14.420;2023-05-24T08:18:47;99796.53;;;16.42;42.42
67740;BME280;54536;50.090;14.420;2023-05-24T08:21:13;99796.00;;;16.46;42.10
67740;BME280;54536;50.090;14.420;2023-05-24T08:23:40;99796.84;;;16.38;42.65
67740;BME280;54536;50.090;14.420;2023-05-24T08:26:05;99795.00;;;16.47;42.77
67740;BME280;54536;50.090;14.420;2023-05-24T08:28:32;99797.84;;;16.54;41.78
67740;BME280;54536;50.090;14.420;2023-05-24T08:30:58;99801.50;;;16.53;42.59
67740;BME280;54536;50.090;14.420;2023-05-24T08:33:25;99808.13;;;16.49;41.90
67740;BME280;54536;50.090;14.420;2023-05-24T08:35:51;99795.69;;;16.49;42.02
67740;BME280;54536;50.090;14.420;2023-05-24T08:38:17;99808.47;;;16.62;42.09
67740;BME280;54536;50.090;14.420;2023-05-24T08:40:44;99801.66;;;16.51;41.89
67740;BME280;54536;50.090;14.420;2023-05-24T08:43:11;99809.97;;;16.56;41.72
67740;BME280;54536;50.090;14.420;2023-05-24T08:45:38;99808.63;;;16.60;41.66
67740;BME280;54536;50.090;14.420;2023-05-24T08:48:05;99811.13;;;16.70;41.57
67740;BME280;54536;50.090;14.420;2023-05-24T08:50:33;99812.50;;;16.82;41.60
67740;BME280;54536;50.090;14.420;2023-05-24T08:53:00;99815.31;;;16.81;41.02
67740;BME280;54536;50.090;14.420;2023-05-24T08:55:32;99812.00;;;16.79;41.16
67740;BME280;54536;50.090;14.420;2023-05-24T08:58:00;99817.63;;;16.92;40.91
67740;BME280;54536;50.090;14.420;2023-05-24T09:00:26;99817.63;;;16.92;40.48
67740;BME280;54536;50.090;14.420;2023-05-24T09:02:53;99815.13;;;16.99;40.43
67740;BME280;54536;50.090;14.420;2023-05-24T09:05:21;99821.94;;;17.09;39.54
67740;BME280;54536;50.090;14.420;2023-05-24T09:07:48;99815.66;;;16.94;40.16
67740;BME280;54536;50.090;14.420;2023-05-24T09:10:19;99815.16;;;17.07;40.16
67740;BME280;54536;50.090;14.420;2023-05-24T09:12:56;99821.56;;;17.29;40.46
67740;BME280;54536;50.090;14.420;2023-05-24T09:15:23;99824.22;;;17.29;39.60
67740;BME280;54536;50.090;14.420;2023-05-24T09:17:49;99822.56;;;17.28;40.23
67740;BME280;54536;50.090;14.420;2023-05-24T09:20:16;99825.22;;;17.28;39.80
67740;BME280;54536;50.090;14.420;2023-05-24T09:22:50;99828.91;;;17.27;39.56
67740;BME280;54536;50.090;14.420;2023-05-24T09:25:19;99824.22;;;17.37;38.93
67740;BME280;54536;50.090;14.420;2023-05-24T09:27:51;99823.41;;;17.37;39.21
67740;BME280;54536;50.090;14.420;2023-05-24T09:30:18;99815.69;;;17.58;39.03
67740;BME280;54536;50.090;14.420;2023-05-24T09:32:57;99817.50;;;17.66;39.11
67740;BME280;54536;50.090;14.420;2023-05-24T09:35:26;99821.97;;;17.65;39.05
67740;BME280;54536;50.090;14.420;2023-05-24T09:37:54;99813.97;;;17.82;38.64
67740;BME280;54536;50.090;14.420;2023-05-24T09:40:22;99820.78;;;17.84;38.94
67740;BME280;54536;50.090;14.420;2023-05-24T09:43:08;99817.75;;;17.95;38.66
67740;BME280;54536;50.090;14.420;2023-05-24T09:45:44;99820.91;;;17.91;38.20
67740;BME280;54536;50.090;14.420;2023-05-24T09:48:15;99814.28;;;17.87;38.63
67740;BME280;54536;50.090;14.420;2023-05-24T09:50:43;99813.75;;;17.91;38.93
67740;BME280;54536;50.090;14.420;2023-05-24T09:53:16;99810.81;;;17.86;38.51
67740;BME280;54536;50.090;14.420;2023-05-24T09:55:43;99822.28;;;17.78;37.92
67740;BME280;54536;50.090;14.420;2023-05-24T09:58:10;99816.16;;;17.70;38.58
67740;BME280;54536;50.090;14.420;2023-05-24T10:00:39;99827.78;;;17.77;38.17
67740;BME280;54536;50.090;14.420;2023-05-24T10:03:08;99827.94;;;17.84;39.04
67740;BME280;54536;50.090;14.420;2023-05-24T10:05:36;99825.97;;;17.77;38.53
67740;BME280;54536;50.090;14.420;2023-05-24T10:08:03;99819.00;;;17.76;38.94
67740;BME280;54536;50.090;14.420;2023-05-24T10:10:34;99828.59;;;17.86;37.91
67740;BME280;54536;50.090;14.420;2023-05-24T10:13:01;99824.13;;;17.70;38.88
67740;BME280;54536;50.090;14.420;2023-05-24T10:15:28;99825.69;;;17.56;39.02
67740;BME280;54536;50.090;14.420;2023-05-24T10:17:56;99826.78;;;17.70;39.73
67740;BME280;54536;50.090;14.420;2023-05-24T10:20:23;99829.44;;;17.78;39.57
67740;BME280;54536;50.090;14.420;2023-05-24T10:23:00;99831.56;;;17.91;38.68
67740;BME280;54536;50.090;14.420;2023-05-24T10:25:32;99829.75;;;17.83;38.32
67740;BME280;54536;50.090;14.420;2023-05-24T10:28:10;99820.78;;;17.84;38.71
67740;BME280;54536;50.090;14.420;2023-05-24T10:33:13;99822.09;;;17.88;38.62
67740;BME280;54536;50.090;14.420;2023-05-24T10:35:43;99825.72;;;17.95;38.39
67740;BME280;54536;50.090;14.420;2023-05-24T10:38:10;99819.69;;;18.01;38.27
67740;BME280;54536;50.090;14.420;2023-05-24T10:40:41;99823.22;;;18.02;38.38
67740;BME280;54536;50.090;14.420;2023-05-24T10:43:08;99806.97;;;18.20;37.70
67740;BME280;54536;50.090;14.420;2023-05-24T10:45:39;99811.16;;;18.37;37.16
67740;BME280;54536;50.090;14.420;2023-05-24T10:50:39;99809.19;;;18.62;36.81
67740;BME280;54536;50.090;14.420;2023-05-24T10:53:20;99812.03;;;18.61;36.38
67740;BME280;54536;50.090;14.420;2023-05-24T10:58:18;99813.44;;;18.94;34.75
67740;BME280;54536;50.090;14.420;2023-05-24T11:00:45;99821.09;;;18.98;35.80
67740;BME280;54536;50.090;14.420;2023-05-24T11:03:13;99820.88;;;18.99;35.32
67740;BME280;54536;50.090;14.420;2023-05-24T11:05:51;99813.72;;;19.00;34.85
67740;BME280;54536;50.090;14.420;2023-05-24T11:08:34;99814.22;;;19.03;35.05
67740;BME280;54536;50.090;14.420;2023-05-24T11:11:09;99826.00;;;19.24;34.80
67740;BME280;54536;50.090;14.420;2023-05-24T11:13:40;99819.50;;;19.41;33.66
67740;BME280;54536;50.090;14.420;2023-05-24T11:16:06;99821.34;;;19.40;34.34
67740;BME280;54536;50.090;14.420;2023-05-24T11:18:33;99819.06;;;19.52;33.87
67740;BME280;54536;50.090;14.420;2023-05-24T11:21:05;99817.75;;;19.78;33.67
67740;BME280;54536;50.090;14.420;2023-05-24T11:23:32;99815.94;;;19.78;33.61
67740;BME280;54536;50.090;14.420;2023-05-24T11:25:59;99818.78;;;19.77;33.70
67740;BME280;54536;50.090;14.420;2023-05-24T11:28:25;99819.84;;;19.97;33.47
67740;BME280;54536;50.090;14.420;2023-05-24T11:30:53;99810.34;;;20.09;33.67
67740;BME280;54536;50.090;14.420;2023-05-24T11:33:21;99800.19;;;20.20;32.71
67740;BME280;54536;50.090;14.420;2023-05-24T11:35:53;99802.91;;;20.05;32.32
67740;BME280;54536;50.090;14.420;2023-05-24T11:38:21;99808.72;;;20.08;31.89
67740;BME280;54536;50.090;14.420;2023-05-24T11:40:48;99800.19;;;20.20;32.41
67740;BME280;54536;50.090;14.420;2023-05-24T11:43:19;99808.03;;;20.21;32.11
67740;BME280;54536;50.090;14.420;2023-05-24T11:45:50;99809.19;;;20.33;31.96
67740;BME280;54536;50.090;14.420;2023-05-24T11:48:18;99810.06;;;20.19;32.66
67740;BME280;54536;50.090;14.420;2023-05-24T11:50:47;99804.72;;;20.19;32.53
67740;BME280;54536;50.090;14.420;2023-05-24T11:53:17;99808.19;;;19.83;32.23
67740;BME280;54536;50.090;14.420;2023-05-24T11:55:43;99808.84;;;20.22;32.33
67740;BME280;54536;50.090;14.420;2023-05-24T12:00:42;99808.59;;;21.02;30.70
67740;BME280;54536;50.090;14.420;2023-05-24T12:03:09;99810.56;;;21.43;30.83
67740;BME280;54536;50.090;14.420;2023-05-24T12:05:36;99801.53;;;22.34;29.46
67740;BME280;54536;50.090;14.420;2023-05-24T12:08:08;99803.25;;;23.08;28.37
67740;BME280;54536;50.090;14.420;2023-05-24T12:10:35;99810.66;;;22.93;28.20
67740;BME280;54536;50.090;14.420;2023-05-24T12:13:03;99819.50;;;22.53;28.71
67740;BME280;54536;50.090;14.420;2023-05-24T12:15:30;99810.34;;;22.21;29.54
67740;BME280;54536;50.090;14.420;2023-05-24T12:17:57;99812.28;;;21.99;30.07
67740;BME280;54536;50.090;14.420;2023-05-24T12:20:26;99818.03;;;21.89;29.72
67740;BME280;54536;50.090;14.420;2023-05-24T12:22:54;99817.88;;;21.97;28.84
67740;BME280;54536;50.090;14.420;2023-05-24T12:25:22;99812.75;;;22.09;28.73
67740;BME280;54536;50.090;14.420;2023-05-24T12:27:55;99809.00;;;22.04;28.48
67740;BME280;54536;50.090;14.420;2023-05-24T12:30:25;99795.56;;;22.52;28.30
67740;BME280;54536;50.090;14.420;2023-05-24T12:32:51;99788.34;;;23.39;26.96
67740;BME280;54536;50.090;14.420;2023-05-24T12:35:21;99792.88;;;24.48;25.33
67740;BME280;54536;50.090;14.420;2023-05-24T12:37:48;99791.13;;;25.10;24.78
67740;BME280;54536;50.090;14.420;2023-05-24T12:40:19;99788.94;;;24.05;25.52
67740;BME280;54536;50.090;14.420;2023-05-24T12:42:56;99790.28;;;23.83;25.92
67740;BME280;54536;50.090;14.420;2023-05-24T12:45:23;99786.28;;;23.99;25.88
67740;BME280;54536;50.090;14.420;2023-05-24T12:47:55;99785.41;;;23.53;25.81
67740;BME280;54536;50.090;14.420;2023-05-24T12:50:24;99787.13;;;23.08;26.42
67740;BME280;54536;50.090;14.420;2023-05-24T12:52:51;99784.03;;;23.11;26.97
67740;BME280;54536;50.090;14.420;2023-05-24T12:55:20;99773.97;;;22.93;26.66
67740;BME280;54536;50.090;14.420;2023-05-24T12:57:47;99771.03;;;22.48;27.15
67740;BME280;54536;50.090;14.420;2023-05-24T13:00:19;99781.75;;;22.41;28.09
67740;BME280;54536;50.090;14.420;2023-05-24T13:02:46;99775.97;;;23.24;26.75
67740;BME280;54536;50.090;14.420;2023-05-24T13:05:12;99776.09;;;24.14;25.52
67740;BME280;54536;50.090;14.420;2023-05-24T13:07:41;99779.72;;;24.65;24.78
67740;BME280;54536;50.090;14.420;2023-05-24T13:10:08;99779.00;;;25.01;24.47